VBD205 SAZS-SAME
Flight info
| Callsign | VBD205 |
|---|---|
| Flight time | 1h 58m |
| Altitude | 31000 |
| Route | CHATO1C CHATO UW44 ESITO ESITO1U |
| Aircraft | TBM9/L-SDFGRWY/S |
Departure
| Time | 2026-04-22 14:34 |
|---|---|
| Airport | Teniente Luis Candelaria International Airport (SAZS) |
Arrival
| Time | 2026-04-22 16:32 |
|---|---|
| Airport | Governor Francisco Gabrielli International Airport (SAME) |
| Time | Latitude | Longitude | Altitude | Speed | Heading |
|---|---|---|---|---|---|
| 2026-04-22 14:16 | -41.14863 | -71.15652 | 2754 ft | 0 kts | 306° |
| 2026-04-22 14:27 | -41.14853 | -71.15647 | 2754 ft | 8 kts | 98° |
| 2026-04-22 14:27 | -41.14941 | -71.15648 | 2754 ft | 18 kts | 203° |
| 2026-04-22 14:27 | -41.15026 | -71.15569 | 2757 ft | 18 kts | 120° |
| 2026-04-22 14:27 | -41.15084 | -71.15416 | 2756 ft | 19 kts | 114° |
| 2026-04-22 14:28 | -41.15142 | -71.15246 | 2758 ft | 21 kts | 115° |
| 2026-04-22 14:28 | -41.15204 | -71.15064 | 2759 ft | 22 kts | 114° |
| 2026-04-22 14:28 | -41.15270 | -71.14873 | 2761 ft | 23 kts | 115° |
| 2026-04-22 14:28 | -41.15342 | -71.14673 | 2763 ft | 25 kts | 115° |
| 2026-04-22 14:29 | -41.15416 | -71.14480 | 2765 ft | 21 kts | 149° |
| 2026-04-22 14:29 | -41.15468 | -71.14491 | 2764 ft | 0 kts | 227° |
| 2026-04-22 14:30 | -41.15481 | -71.14499 | 2764 ft | 0 kts | 198° |
| 2026-04-22 14:33 | -41.15482 | -71.14500 | 2764 ft | 1 kts | 196° |
| 2026-04-22 14:33 | -41.15509 | -71.14513 | 2764 ft | 8 kts | 212° |
| 2026-04-22 14:33 | -41.15525 | -71.14604 | 2763 ft | 14 kts | 290° |
| 2026-04-22 14:33 | -41.15472 | -71.14764 | 2762 ft | 34 kts | 301° |
| 2026-04-22 14:34 | -41.15286 | -71.15305 | 2759 ft | 93 kts | 297° |
| 2026-04-22 14:34 | -41.14918 | -71.16244 | 2925 ft | 124 kts | 301° |
| 2026-04-22 14:34 | -41.14193 | -71.16910 | 3238 ft | 141 kts | 356° |
| 2026-04-22 14:34 | -41.13274 | -71.16363 | 3569 ft | 159 kts | 46° |
| 2026-04-22 14:35 | -41.12441 | -71.15307 | 3897 ft | 173 kts | 36° |
| 2026-04-22 14:35 | -41.11320 | -71.14622 | 4223 ft | 183 kts | 15° |
| 2026-04-22 14:35 | -41.10052 | -71.14237 | 4560 ft | 190 kts | 12° |
| 2026-04-22 14:35 | -41.08734 | -71.13870 | 4895 ft | 196 kts | 12° |
| 2026-04-22 14:36 | -41.07386 | -71.13475 | 5228 ft | 200 kts | 13° |
| 2026-04-22 14:36 | -41.06016 | -71.13068 | 5558 ft | 203 kts | 13° |
| 2026-04-22 14:36 | -41.04631 | -71.12658 | 5886 ft | 205 kts | 13° |
| 2026-04-22 14:36 | -41.03235 | -71.12247 | 6211 ft | 207 kts | 13° |
| 2026-04-22 14:37 | -41.01826 | -71.11830 | 6536 ft | 208 kts | 13° |
| 2026-04-22 14:37 | -41.00415 | -71.11413 | 6861 ft | 208 kts | 13° |
| 2026-04-22 14:37 | -40.99001 | -71.10996 | 7183 ft | 208 kts | 13° |
| 2026-04-22 14:37 | -40.97584 | -71.10578 | 7507 ft | 209 kts | 13° |
| 2026-04-22 14:38 | -40.96162 | -71.10160 | 7829 ft | 210 kts | 13° |
| 2026-04-22 14:38 | -40.94736 | -71.09739 | 8153 ft | 210 kts | 13° |
| 2026-04-22 14:38 | -40.93308 | -71.09319 | 8476 ft | 211 kts | 13° |
| 2026-04-22 14:38 | -40.91873 | -71.08897 | 8800 ft | 212 kts | 13° |
| 2026-04-22 14:39 | -40.90433 | -71.08472 | 9123 ft | 213 kts | 13° |
| 2026-04-22 14:39 | -40.88988 | -71.08048 | 9447 ft | 213 kts | 13° |
| 2026-04-22 14:39 | -40.87541 | -71.07623 | 9771 ft | 213 kts | 13° |
| 2026-04-22 14:40 | -40.85126 | -71.06912 | 10307 ft | 215 kts | 13° |
| 2026-04-22 14:40 | -40.83190 | -71.06345 | 10738 ft | 216 kts | 13° |
| 2026-04-22 14:40 | -40.81725 | -71.05915 | 11061 ft | 216 kts | 13° |
| 2026-04-22 14:40 | -40.80254 | -71.05483 | 11385 ft | 217 kts | 13° |
| 2026-04-22 14:41 | -40.78777 | -71.05049 | 11706 ft | 218 kts | 13° |
| 2026-04-22 14:41 | -40.77295 | -71.04616 | 12028 ft | 218 kts | 13° |
| 2026-04-22 14:41 | -40.75811 | -71.04181 | 12354 ft | 219 kts | 13° |
| 2026-04-22 14:41 | -40.74325 | -71.03746 | 12679 ft | 219 kts | 13° |
| 2026-04-22 14:42 | -40.72838 | -71.03311 | 13002 ft | 219 kts | 13° |
| 2026-04-22 14:42 | -40.71346 | -71.02874 | 13326 ft | 220 kts | 13° |
| 2026-04-22 14:42 | -40.69851 | -71.02437 | 13649 ft | 220 kts | 13° |
| 2026-04-22 14:42 | -40.68353 | -71.01999 | 13972 ft | 221 kts | 13° |
| 2026-04-22 14:43 | -40.66851 | -71.01561 | 14295 ft | 221 kts | 13° |
| 2026-04-22 14:43 | -40.65347 | -71.01121 | 14617 ft | 222 kts | 13° |
| 2026-04-22 14:43 | -40.63839 | -71.00681 | 14941 ft | 222 kts | 13° |
| 2026-04-22 14:43 | -40.62329 | -71.00240 | 15264 ft | 223 kts | 13° |
| 2026-04-22 14:44 | -40.60815 | -70.99799 | 15587 ft | 223 kts | 13° |
| 2026-04-22 14:44 | -40.59296 | -70.99357 | 15908 ft | 224 kts | 13° |
| 2026-04-22 14:44 | -40.57775 | -70.98913 | 16232 ft | 224 kts | 13° |
| 2026-04-22 14:44 | -40.56766 | -70.98620 | 16446 ft | 225 kts | 13° |
| 2026-04-22 14:45 | -40.55237 | -70.98175 | 16770 ft | 225 kts | 13° |
| 2026-04-22 14:45 | -40.53706 | -70.97729 | 17098 ft | 226 kts | 13° |
| 2026-04-22 14:45 | -40.52171 | -70.97282 | 17420 ft | 226 kts | 13° |
| 2026-04-22 14:45 | -40.50633 | -70.96836 | 17740 ft | 227 kts | 13° |
| 2026-04-22 14:46 | -40.49093 | -70.96388 | 18063 ft | 227 kts | 13° |
| 2026-04-22 14:46 | -40.47547 | -70.95940 | 18386 ft | 228 kts | 13° |
| 2026-04-22 14:46 | -40.45999 | -70.95491 | 18709 ft | 228 kts | 13° |
| 2026-04-22 14:46 | -40.44447 | -70.95040 | 19033 ft | 229 kts | 13° |
| 2026-04-22 14:47 | -40.42365 | -70.94436 | 19465 ft | 229 kts | 13° |
| 2026-04-22 14:47 | -40.41334 | -70.94137 | 19679 ft | 230 kts | 13° |
| 2026-04-22 14:47 | -40.39771 | -70.93685 | 20002 ft | 230 kts | 13° |
| 2026-04-22 14:47 | -40.38205 | -70.93231 | 20326 ft | 231 kts | 13° |
| 2026-04-22 14:48 | -40.36635 | -70.92777 | 20649 ft | 231 kts | 13° |
| 2026-04-22 14:48 | -40.35063 | -70.92322 | 20970 ft | 232 kts | 13° |
| 2026-04-22 14:48 | -40.33486 | -70.91866 | 21297 ft | 232 kts | 13° |
| 2026-04-22 14:48 | -40.31907 | -70.91410 | 21618 ft | 233 kts | 13° |
| 2026-04-22 14:49 | -40.30324 | -70.90952 | 21942 ft | 233 kts | 13° |
| 2026-04-22 14:49 | -40.28739 | -70.90495 | 22264 ft | 234 kts | 13° |
| 2026-04-22 14:49 | -40.27149 | -70.90036 | 22588 ft | 234 kts | 13° |
| 2026-04-22 14:49 | -40.25555 | -70.89576 | 22907 ft | 235 kts | 13° |
| 2026-04-22 14:50 | -40.23960 | -70.89117 | 23234 ft | 235 kts | 13° |
| 2026-04-22 14:50 | -40.22360 | -70.88656 | 23558 ft | 236 kts | 13° |
| 2026-04-22 14:50 | -40.20779 | -70.88200 | 23876 ft | 236 kts | 13° |
| 2026-04-22 14:50 | -40.19175 | -70.87738 | 24199 ft | 236 kts | 13° |
| 2026-04-22 14:51 | -40.17566 | -70.87275 | 24522 ft | 237 kts | 13° |
| 2026-04-22 14:51 | -40.15954 | -70.86812 | 24842 ft | 238 kts | 13° |
| 2026-04-22 14:51 | -40.14338 | -70.86347 | 25169 ft | 238 kts | 12° |
| 2026-04-22 14:51 | -40.12719 | -70.85882 | 25493 ft | 238 kts | 13° |
| 2026-04-22 14:52 | -40.11098 | -70.85416 | 25819 ft | 239 kts | 13° |
| 2026-04-22 14:52 | -40.09473 | -70.84950 | 26137 ft | 239 kts | 13° |
| 2026-04-22 14:52 | -40.07846 | -70.84484 | 26460 ft | 240 kts | 13° |
| 2026-04-22 14:52 | -40.06218 | -70.84016 | 26783 ft | 240 kts | 13° |
| 2026-04-22 14:53 | -40.04586 | -70.83548 | 27103 ft | 240 kts | 12° |
| 2026-04-22 14:53 | -40.02950 | -70.83080 | 27429 ft | 241 kts | 12° |
| 2026-04-22 14:53 | -40.01313 | -70.82611 | 27752 ft | 241 kts | 12° |
| 2026-04-22 14:53 | -39.99674 | -70.82142 | 28075 ft | 241 kts | 13° |
| 2026-04-22 14:54 | -39.98034 | -70.81673 | 28396 ft | 241 kts | 12° |
| 2026-04-22 14:54 | -39.96399 | -70.81206 | 28720 ft | 241 kts | 12° |
| 2026-04-22 14:54 | -39.94766 | -70.80739 | 29037 ft | 240 kts | 12° |
| 2026-04-22 14:54 | -39.93137 | -70.80274 | 29359 ft | 239 kts | 12° |
| 2026-04-22 14:55 | -39.91515 | -70.79811 | 29680 ft | 238 kts | 12° |
| 2026-04-22 14:55 | -39.89897 | -70.79350 | 30000 ft | 237 kts | 12° |
| 2026-04-22 14:55 | -39.88287 | -70.78891 | 30320 ft | 236 kts | 12° |
| 2026-04-22 14:55 | -39.86686 | -70.78434 | 30639 ft | 235 kts | 12° |
| 2026-04-22 14:56 | -39.85095 | -70.77981 | 30953 ft | 233 kts | 12° |
| 2026-04-22 14:56 | -39.83479 | -70.77519 | 30996 ft | 244 kts | 13° |
| 2026-04-22 14:56 | -39.81787 | -70.77034 | 31004 ft | 254 kts | 13° |
| 2026-04-22 14:56 | -39.80035 | -70.76533 | 31010 ft | 262 kts | 13° |
| 2026-04-22 14:57 | -39.78231 | -70.76019 | 31012 ft | 269 kts | 13° |
| 2026-04-22 14:57 | -39.76384 | -70.75493 | 31013 ft | 274 kts | 13° |
| 2026-04-22 14:57 | -39.74507 | -70.74959 | 31011 ft | 278 kts | 13° |
| 2026-04-22 14:57 | -39.72602 | -70.74418 | 31009 ft | 282 kts | 13° |
| 2026-04-22 14:58 | -39.70679 | -70.73871 | 31010 ft | 284 kts | 13° |
| 2026-04-22 14:58 | -39.68742 | -70.73321 | 31010 ft | 286 kts | 13° |
| 2026-04-22 14:58 | -39.66793 | -70.72768 | 31010 ft | 287 kts | 13° |
| 2026-04-22 14:58 | -39.64835 | -70.72213 | 31010 ft | 289 kts | 13° |
| 2026-04-22 14:59 | -39.62868 | -70.71656 | 31011 ft | 290 kts | 13° |
| 2026-04-22 14:59 | -39.60896 | -70.71098 | 31010 ft | 290 kts | 13° |
| 2026-04-22 14:59 | -39.58922 | -70.70540 | 31009 ft | 291 kts | 13° |
| 2026-04-22 14:59 | -39.56972 | -70.69988 | 31008 ft | 291 kts | 13° |
| 2026-04-22 15:00 | -39.54996 | -70.69431 | 31006 ft | 291 kts | 13° |
| 2026-04-22 15:00 | -39.53015 | -70.68871 | 31005 ft | 291 kts | 13° |
| 2026-04-22 15:00 | -39.51037 | -70.68313 | 31003 ft | 291 kts | 13° |
| 2026-04-22 15:00 | -39.49060 | -70.67755 | 31002 ft | 291 kts | 13° |
| 2026-04-22 15:01 | -39.47080 | -70.67197 | 31000 ft | 291 kts | 13° |
| 2026-04-22 15:01 | -39.45101 | -70.66639 | 30999 ft | 291 kts | 13° |
| 2026-04-22 15:01 | -39.43120 | -70.66081 | 30999 ft | 292 kts | 13° |
| 2026-04-22 15:01 | -39.41136 | -70.65523 | 30998 ft | 292 kts | 13° |
| 2026-04-22 15:02 | -39.39151 | -70.64965 | 30997 ft | 292 kts | 13° |
| 2026-04-22 15:02 | -39.37165 | -70.64407 | 30995 ft | 292 kts | 13° |
| 2026-04-22 15:02 | -39.35180 | -70.63849 | 30992 ft | 292 kts | 13° |
| 2026-04-22 15:02 | -39.33199 | -70.63293 | 30993 ft | 292 kts | 13° |
| 2026-04-22 15:03 | -39.31214 | -70.62736 | 30994 ft | 292 kts | 13° |
| 2026-04-22 15:03 | -39.29229 | -70.62180 | 30992 ft | 292 kts | 13° |
| 2026-04-22 15:03 | -39.27245 | -70.61624 | 30993 ft | 292 kts | 13° |
| 2026-04-22 15:03 | -39.25262 | -70.61068 | 30993 ft | 291 kts | 13° |
| 2026-04-22 15:04 | -39.23286 | -70.60516 | 30992 ft | 291 kts | 13° |
| 2026-04-22 15:04 | -39.21308 | -70.59962 | 30992 ft | 290 kts | 13° |
| 2026-04-22 15:04 | -39.19335 | -70.59410 | 30993 ft | 290 kts | 12° |
| 2026-04-22 15:04 | -39.17363 | -70.58859 | 30993 ft | 290 kts | 13° |
| 2026-04-22 15:05 | -39.15391 | -70.58308 | 30994 ft | 290 kts | 13° |
| 2026-04-22 15:05 | -39.13421 | -70.57759 | 30993 ft | 290 kts | 13° |
| 2026-04-22 15:05 | -39.11452 | -70.57210 | 30992 ft | 289 kts | 12° |
| 2026-04-22 15:05 | -39.09486 | -70.56662 | 30992 ft | 289 kts | 12° |
| 2026-04-22 15:06 | -39.07525 | -70.56116 | 30994 ft | 288 kts | 12° |
| 2026-04-22 15:06 | -39.05568 | -70.55570 | 30992 ft | 288 kts | 13° |
| 2026-04-22 15:06 | -39.03608 | -70.55025 | 30994 ft | 288 kts | 12° |
| 2026-04-22 15:06 | -39.01650 | -70.54480 | 30992 ft | 288 kts | 12° |
| 2026-04-22 15:07 | -38.99690 | -70.53935 | 30993 ft | 288 kts | 12° |
| 2026-04-22 15:07 | -38.97728 | -70.53390 | 30992 ft | 289 kts | 12° |
| 2026-04-22 15:07 | -38.95765 | -70.52845 | 30993 ft | 289 kts | 12° |
| 2026-04-22 15:07 | -38.93802 | -70.52300 | 30993 ft | 289 kts | 12° |
| 2026-04-22 15:08 | -38.91834 | -70.51754 | 30993 ft | 290 kts | 12° |
| 2026-04-22 15:08 | -38.89863 | -70.51207 | 30992 ft | 290 kts | 12° |
| 2026-04-22 15:08 | -38.87891 | -70.50661 | 30993 ft | 290 kts | 12° |
| 2026-04-22 15:08 | -38.85918 | -70.50114 | 30992 ft | 290 kts | 12° |
| 2026-04-22 15:09 | -38.83943 | -70.49568 | 30993 ft | 290 kts | 12° |
| 2026-04-22 15:09 | -38.81969 | -70.49022 | 30994 ft | 290 kts | 12° |
| 2026-04-22 15:09 | -38.79995 | -70.48476 | 30992 ft | 290 kts | 12° |
| 2026-04-22 15:09 | -38.78019 | -70.47930 | 30993 ft | 290 kts | 12° |
| 2026-04-22 15:10 | -38.76068 | -70.47392 | 30993 ft | 291 kts | 12° |
| 2026-04-22 15:10 | -38.74091 | -70.46846 | 30992 ft | 291 kts | 12° |
| 2026-04-22 15:10 | -38.72087 | -70.46293 | 30993 ft | 291 kts | 12° |
| 2026-04-22 15:10 | -38.70108 | -70.45748 | 30992 ft | 291 kts | 12° |
| 2026-04-22 15:11 | -38.68155 | -70.45209 | 30993 ft | 291 kts | 12° |
| 2026-04-22 15:11 | -38.66175 | -70.44665 | 30992 ft | 291 kts | 12° |
| 2026-04-22 15:11 | -38.64191 | -70.44118 | 30993 ft | 292 kts | 12° |
| 2026-04-22 15:11 | -38.62206 | -70.43572 | 30992 ft | 292 kts | 12° |
| 2026-04-22 15:12 | -38.60219 | -70.43026 | 30992 ft | 292 kts | 12° |
| 2026-04-22 15:12 | -38.58230 | -70.42479 | 30992 ft | 292 kts | 12° |
| 2026-04-22 15:12 | -38.56241 | -70.41934 | 30994 ft | 293 kts | 12° |
| 2026-04-22 15:12 | -38.54249 | -70.41387 | 30992 ft | 293 kts | 12° |
| 2026-04-22 15:13 | -38.52256 | -70.40840 | 30993 ft | 293 kts | 12° |
| 2026-04-22 15:13 | -38.50262 | -70.40293 | 30992 ft | 293 kts | 12° |
| 2026-04-22 15:13 | -38.48266 | -70.39747 | 30993 ft | 293 kts | 12° |
| 2026-04-22 15:13 | -38.46271 | -70.39201 | 30993 ft | 293 kts | 12° |
| 2026-04-22 15:14 | -38.44277 | -70.38655 | 30992 ft | 293 kts | 12° |
| 2026-04-22 15:14 | -38.42282 | -70.38109 | 30992 ft | 293 kts | 12° |
| 2026-04-22 15:14 | -38.40290 | -70.37565 | 30993 ft | 293 kts | 12° |
| 2026-04-22 15:14 | -38.38296 | -70.37020 | 30993 ft | 293 kts | 12° |
| 2026-04-22 15:15 | -38.36304 | -70.36476 | 30993 ft | 292 kts | 12° |
| 2026-04-22 15:15 | -38.34315 | -70.35934 | 30993 ft | 292 kts | 12° |
| 2026-04-22 15:15 | -38.32330 | -70.35393 | 30992 ft | 292 kts | 12° |
| 2026-04-22 15:15 | -38.30347 | -70.34853 | 30992 ft | 291 kts | 12° |
| 2026-04-22 15:16 | -38.28370 | -70.34314 | 30993 ft | 291 kts | 12° |
| 2026-04-22 15:16 | -38.26394 | -70.33758 | 30993 ft | 291 kts | 13° |
| 2026-04-22 15:16 | -38.24419 | -70.33187 | 30992 ft | 291 kts | 13° |
| 2026-04-22 15:16 | -38.22442 | -70.32624 | 30992 ft | 291 kts | 13° |
| 2026-04-22 15:17 | -38.20463 | -70.32065 | 30993 ft | 291 kts | 13° |
| 2026-04-22 15:17 | -38.18483 | -70.31505 | 30992 ft | 292 kts | 13° |
| 2026-04-22 15:17 | -38.16504 | -70.30944 | 30993 ft | 292 kts | 13° |
| 2026-04-22 15:17 | -38.14521 | -70.30382 | 30993 ft | 292 kts | 13° |
| 2026-04-22 15:18 | -38.12536 | -70.29820 | 30992 ft | 292 kts | 13° |
| 2026-04-22 15:18 | -38.10550 | -70.29260 | 30992 ft | 292 kts | 13° |
| 2026-04-22 15:18 | -38.08593 | -70.28708 | 30992 ft | 292 kts | 13° |
| 2026-04-22 15:18 | -38.06613 | -70.28148 | 30994 ft | 291 kts | 13° |
| 2026-04-22 15:19 | -38.04636 | -70.27590 | 30993 ft | 291 kts | 13° |
| 2026-04-22 15:19 | -38.02663 | -70.27033 | 30992 ft | 291 kts | 13° |
| 2026-04-22 15:19 | -38.00686 | -70.26476 | 30993 ft | 291 kts | 13° |
| 2026-04-22 15:19 | -37.98707 | -70.25918 | 30992 ft | 291 kts | 13° |
| 2026-04-22 15:20 | -37.97371 | -70.25542 | 30993 ft | 291 kts | 13° |
| 2026-04-22 15:20 | -37.94748 | -70.24804 | 30992 ft | 292 kts | 13° |
| 2026-04-22 15:20 | -37.92767 | -70.24246 | 30992 ft | 292 kts | 13° |
| 2026-04-22 15:20 | -37.90787 | -70.23690 | 30992 ft | 291 kts | 13° |
| 2026-04-22 15:21 | -37.88810 | -70.23134 | 30993 ft | 291 kts | 13° |
| 2026-04-22 15:21 | -37.86826 | -70.22578 | 30992 ft | 293 kts | 13° |
| 2026-04-22 15:21 | -37.84832 | -70.22017 | 30992 ft | 295 kts | 13° |
| 2026-04-22 15:21 | -37.82822 | -70.21453 | 30994 ft | 297 kts | 13° |
| 2026-04-22 15:22 | -37.80796 | -70.20885 | 30996 ft | 299 kts | 13° |
| 2026-04-22 15:22 | -37.78758 | -70.20314 | 30997 ft | 301 kts | 13° |
| 2026-04-22 15:22 | -37.74657 | -70.19165 | 30999 ft | 303 kts | 13° |
| 2026-04-22 15:23 | -37.70528 | -70.18010 | 30997 ft | 304 kts | 13° |
| 2026-04-22 15:23 | -37.66387 | -70.16853 | 30996 ft | 305 kts | 13° |
| 2026-04-22 15:24 | -37.62234 | -70.15694 | 30994 ft | 306 kts | 13° |
| 2026-04-22 15:24 | -37.58076 | -70.14535 | 30993 ft | 306 kts | 13° |
| 2026-04-22 15:25 | -37.53917 | -70.13379 | 30993 ft | 306 kts | 13° |
| 2026-04-22 15:25 | -37.49769 | -70.12225 | 30992 ft | 305 kts | 13° |
| 2026-04-22 15:26 | -37.45616 | -70.11070 | 30993 ft | 306 kts | 13° |
| 2026-04-22 15:26 | -37.41453 | -70.09917 | 30992 ft | 306 kts | 13° |
| 2026-04-22 15:27 | -37.37289 | -70.08762 | 30993 ft | 306 kts | 13° |
| 2026-04-22 15:27 | -37.33128 | -70.07611 | 30992 ft | 306 kts | 13° |
| 2026-04-22 15:28 | -37.28983 | -70.06465 | 30994 ft | 304 kts | 13° |
| 2026-04-22 15:28 | -37.24859 | -70.05327 | 30992 ft | 302 kts | 13° |
| 2026-04-22 15:29 | -37.20759 | -70.04196 | 30992 ft | 301 kts | 13° |
| 2026-04-22 15:29 | -37.18720 | -70.03635 | 30992 ft | 300 kts | 13° |
| 2026-04-22 15:30 | -37.15335 | -70.02702 | 30992 ft | 299 kts | 13° |
| 2026-04-22 15:30 | -37.12647 | -70.01963 | 30991 ft | 298 kts | 13° |
| 2026-04-22 15:30 | -37.10619 | -70.01405 | 30993 ft | 298 kts | 13° |
| 2026-04-22 15:30 | -37.08590 | -70.00846 | 30993 ft | 299 kts | 13° |
| 2026-04-22 15:31 | -37.06561 | -70.00288 | 30994 ft | 299 kts | 13° |
| 2026-04-22 15:31 | -37.04525 | -69.99730 | 30994 ft | 300 kts | 13° |
| 2026-04-22 15:31 | -37.02487 | -69.99171 | 30994 ft | 300 kts | 13° |
| 2026-04-22 15:31 | -37.00447 | -69.98611 | 30994 ft | 300 kts | 13° |
| 2026-04-22 15:32 | -36.98404 | -69.98051 | 30993 ft | 301 kts | 13° |
| 2026-04-22 15:32 | -36.94312 | -69.96930 | 30993 ft | 302 kts | 13° |
| 2026-04-22 15:33 | -36.90899 | -69.95996 | 30993 ft | 302 kts | 13° |
| 2026-04-22 15:33 | -36.86793 | -69.94873 | 30992 ft | 302 kts | 13° |
| 2026-04-22 15:34 | -36.82676 | -69.93750 | 30993 ft | 303 kts | 13° |
| 2026-04-22 15:34 | -36.78549 | -69.92624 | 30992 ft | 304 kts | 13° |
| 2026-04-22 15:35 | -36.74408 | -69.91495 | 30992 ft | 305 kts | 13° |
| 2026-04-22 15:35 | -36.70257 | -69.90366 | 30992 ft | 305 kts | 13° |
| 2026-04-22 15:36 | -36.66109 | -69.89239 | 30992 ft | 305 kts | 13° |
| 2026-04-22 15:36 | -36.61971 | -69.88115 | 30994 ft | 304 kts | 13° |
| 2026-04-22 15:37 | -36.57850 | -69.86998 | 30993 ft | 303 kts | 13° |
| 2026-04-22 15:37 | -36.53736 | -69.85883 | 30993 ft | 302 kts | 13° |
| 2026-04-22 15:38 | -36.49621 | -69.84768 | 30992 ft | 303 kts | 13° |
| 2026-04-22 15:38 | -36.43444 | -69.83101 | 30992 ft | 303 kts | 13° |
| 2026-04-22 15:39 | -36.39334 | -69.81994 | 30992 ft | 302 kts | 13° |
| 2026-04-22 15:39 | -36.35266 | -69.80898 | 30994 ft | 301 kts | 13° |
| 2026-04-22 15:40 | -36.33224 | -69.80350 | 30992 ft | 300 kts | 13° |
| 2026-04-22 15:40 | -36.31181 | -69.79800 | 30992 ft | 300 kts | 13° |
| 2026-04-22 15:40 | -36.27092 | -69.78702 | 30993 ft | 301 kts | 12° |
| 2026-04-22 15:41 | -36.22990 | -69.77600 | 30993 ft | 302 kts | 13° |
| 2026-04-22 15:41 | -36.18873 | -69.76496 | 30992 ft | 303 kts | 13° |
| 2026-04-22 15:42 | -36.14741 | -69.75390 | 30993 ft | 304 kts | 12° |
| 2026-04-22 15:42 | -36.10608 | -69.74284 | 30992 ft | 304 kts | 12° |
| 2026-04-22 15:43 | -36.06472 | -69.73179 | 30992 ft | 304 kts | 12° |
| 2026-04-22 15:43 | -36.02331 | -69.72073 | 30993 ft | 304 kts | 12° |
| 2026-04-22 15:44 | -35.98187 | -69.70968 | 30992 ft | 305 kts | 12° |
| 2026-04-22 15:44 | -35.94041 | -69.69865 | 30992 ft | 305 kts | 12° |
| 2026-04-22 15:45 | -35.89904 | -69.68764 | 30992 ft | 304 kts | 12° |
| 2026-04-22 15:45 | -35.85769 | -69.67665 | 30992 ft | 304 kts | 12° |
| 2026-04-22 15:46 | -35.81643 | -69.66570 | 30992 ft | 303 kts | 12° |
| 2026-04-22 15:46 | -35.77520 | -69.65476 | 30993 ft | 303 kts | 12° |
| 2026-04-22 15:47 | -35.73398 | -69.64385 | 30993 ft | 304 kts | 12° |
| 2026-04-22 15:47 | -35.69206 | -69.63274 | 30996 ft | 311 kts | 12° |
| 2026-04-22 15:48 | -35.64918 | -69.62137 | 30840 ft | 321 kts | 12° |
| 2026-04-22 15:48 | -35.62712 | -69.61553 | 30656 ft | 328 kts | 13° |
| 2026-04-22 15:48 | -35.60466 | -69.60958 | 30449 ft | 332 kts | 12° |
| 2026-04-22 15:49 | -35.58202 | -69.60360 | 30229 ft | 333 kts | 12° |
| 2026-04-22 15:49 | -35.55937 | -69.59765 | 30014 ft | 333 kts | 12° |
| 2026-04-22 15:49 | -35.53701 | -69.59176 | 29790 ft | 333 kts | 12° |
| 2026-04-22 15:49 | -35.51435 | -69.58578 | 29564 ft | 333 kts | 12° |
| 2026-04-22 15:50 | -35.49139 | -69.57967 | 29346 ft | 334 kts | 14° |
| 2026-04-22 15:50 | -35.46968 | -69.57081 | 29134 ft | 334 kts | 21° |
| 2026-04-22 15:50 | -35.44795 | -69.56070 | 28902 ft | 334 kts | 21° |
| 2026-04-22 15:50 | -35.42611 | -69.55089 | 28677 ft | 334 kts | 20° |
| 2026-04-22 15:51 | -35.40431 | -69.54100 | 28455 ft | 334 kts | 21° |
| 2026-04-22 15:51 | -35.38255 | -69.53101 | 28232 ft | 334 kts | 21° |
| 2026-04-22 15:51 | -35.36047 | -69.52091 | 28001 ft | 334 kts | 21° |
| 2026-04-22 15:51 | -35.33868 | -69.51099 | 27781 ft | 335 kts | 21° |
| 2026-04-22 15:52 | -35.31714 | -69.50119 | 27564 ft | 335 kts | 21° |
| 2026-04-22 15:52 | -35.29529 | -69.49123 | 27341 ft | 335 kts | 21° |
| 2026-04-22 15:52 | -35.27342 | -69.48127 | 27119 ft | 335 kts | 21° |
| 2026-04-22 15:52 | -35.25153 | -69.47131 | 26895 ft | 336 kts | 21° |
| 2026-04-22 15:53 | -35.22962 | -69.46136 | 26667 ft | 336 kts | 21° |
| 2026-04-22 15:53 | -35.20769 | -69.45139 | 26447 ft | 336 kts | 21° |
| 2026-04-22 15:53 | -35.18578 | -69.44144 | 26222 ft | 336 kts | 21° |
| 2026-04-22 15:53 | -35.16383 | -69.43147 | 26000 ft | 337 kts | 21° |
| 2026-04-22 15:54 | -35.14186 | -69.42151 | 25775 ft | 337 kts | 21° |
| 2026-04-22 15:54 | -35.11989 | -69.41155 | 25551 ft | 337 kts | 21° |
| 2026-04-22 15:54 | -35.09793 | -69.40161 | 25325 ft | 336 kts | 21° |
| 2026-04-22 15:54 | -35.07600 | -69.39167 | 25102 ft | 336 kts | 21° |
| 2026-04-22 15:55 | -35.05411 | -69.38178 | 24880 ft | 335 kts | 21° |
| 2026-04-22 15:55 | -35.03228 | -69.37191 | 24657 ft | 334 kts | 21° |
| 2026-04-22 15:55 | -35.01049 | -69.36206 | 24435 ft | 334 kts | 21° |
| 2026-04-22 15:55 | -34.98875 | -69.35224 | 24212 ft | 333 kts | 21° |
| 2026-04-22 15:56 | -34.96706 | -69.34245 | 23992 ft | 332 kts | 21° |
| 2026-04-22 15:56 | -34.94542 | -69.33269 | 23771 ft | 331 kts | 21° |
| 2026-04-22 15:56 | -34.92382 | -69.32295 | 23551 ft | 330 kts | 21° |
| 2026-04-22 15:56 | -34.90231 | -69.31325 | 23333 ft | 330 kts | 21° |
| 2026-04-22 15:57 | -34.88081 | -69.30357 | 23113 ft | 329 kts | 21° |
| 2026-04-22 15:57 | -34.85937 | -69.29392 | 22894 ft | 328 kts | 21° |
| 2026-04-22 15:57 | -34.83798 | -69.28430 | 22679 ft | 327 kts | 21° |
| 2026-04-22 15:57 | -34.81663 | -69.27470 | 22459 ft | 327 kts | 21° |
| 2026-04-22 15:58 | -34.79533 | -69.26513 | 22241 ft | 326 kts | 21° |
| 2026-04-22 15:58 | -34.77409 | -69.25558 | 22025 ft | 325 kts | 21° |
| 2026-04-22 15:58 | -34.75293 | -69.24609 | 21810 ft | 324 kts | 21° |
| 2026-04-22 15:58 | -34.73181 | -69.23661 | 21595 ft | 323 kts | 21° |
| 2026-04-22 15:59 | -34.71074 | -69.22716 | 21380 ft | 322 kts | 21° |
| 2026-04-22 15:59 | -34.68973 | -69.21774 | 21165 ft | 321 kts | 21° |
| 2026-04-22 15:59 | -34.66876 | -69.20836 | 20952 ft | 320 kts | 21° |
| 2026-04-22 15:59 | -34.64788 | -69.19900 | 20739 ft | 320 kts | 21° |
| 2026-04-22 16:00 | -34.62707 | -69.18969 | 20527 ft | 319 kts | 20° |
| 2026-04-22 16:00 | -34.60627 | -69.18040 | 20315 ft | 318 kts | 21° |
| 2026-04-22 16:00 | -34.58556 | -69.17114 | 20102 ft | 317 kts | 20° |
| 2026-04-22 16:00 | -34.56489 | -69.16190 | 19896 ft | 316 kts | 21° |
| 2026-04-22 16:01 | -34.54426 | -69.15269 | 19683 ft | 315 kts | 20° |
| 2026-04-22 16:01 | -34.52397 | -69.14364 | 19476 ft | 315 kts | 21° |
| 2026-04-22 16:01 | -34.50345 | -69.13449 | 19268 ft | 314 kts | 20° |
| 2026-04-22 16:01 | -34.48300 | -69.12538 | 19054 ft | 313 kts | 20° |
| 2026-04-22 16:02 | -34.46254 | -69.11626 | 18850 ft | 313 kts | 20° |
| 2026-04-22 16:02 | -34.44214 | -69.10717 | 18643 ft | 312 kts | 20° |
| 2026-04-22 16:02 | -34.42178 | -69.09810 | 18435 ft | 311 kts | 20° |
| 2026-04-22 16:02 | -34.40146 | -69.08908 | 18229 ft | 311 kts | 20° |
| 2026-04-22 16:03 | -34.38120 | -69.08006 | 18016 ft | 310 kts | 20° |
| 2026-04-22 16:03 | -34.36101 | -69.07108 | 17817 ft | 309 kts | 20° |
| 2026-04-22 16:03 | -34.34081 | -69.06212 | 17611 ft | 308 kts | 20° |
| 2026-04-22 16:03 | -34.32072 | -69.05319 | 17412 ft | 308 kts | 20° |
| 2026-04-22 16:04 | -34.30065 | -69.04430 | 17202 ft | 307 kts | 20° |
| 2026-04-22 16:04 | -34.28063 | -69.03541 | 16998 ft | 306 kts | 20° |
| 2026-04-22 16:04 | -34.26067 | -69.02657 | 16795 ft | 305 kts | 20° |
| 2026-04-22 16:04 | -34.24078 | -69.01774 | 16592 ft | 304 kts | 20° |
| 2026-04-22 16:05 | -34.22762 | -69.01191 | 16458 ft | 304 kts | 20° |
| 2026-04-22 16:05 | -34.20110 | -69.00017 | 16188 ft | 303 kts | 20° |
| 2026-04-22 16:05 | -34.18138 | -68.99144 | 15987 ft | 302 kts | 20° |
| 2026-04-22 16:05 | -34.16169 | -68.98273 | 15787 ft | 301 kts | 20° |
| 2026-04-22 16:06 | -34.14204 | -68.97403 | 15586 ft | 300 kts | 20° |
| 2026-04-22 16:06 | -34.12246 | -68.96539 | 15385 ft | 299 kts | 20° |
| 2026-04-22 16:06 | -34.10292 | -68.95675 | 15188 ft | 299 kts | 20° |
| 2026-04-22 16:06 | -34.08345 | -68.94816 | 14992 ft | 298 kts | 20° |
| 2026-04-22 16:07 | -34.06402 | -68.93957 | 14795 ft | 297 kts | 20° |
| 2026-04-22 16:07 | -34.04463 | -68.93103 | 14595 ft | 296 kts | 20° |
| 2026-04-22 16:07 | -34.02528 | -68.92249 | 14396 ft | 296 kts | 20° |
| 2026-04-22 16:07 | -34.00677 | -68.91434 | 14209 ft | 295 kts | 20° |
| 2026-04-22 16:08 | -33.98752 | -68.90586 | 14014 ft | 294 kts | 20° |
| 2026-04-22 16:08 | -33.96857 | -68.89752 | 13815 ft | 294 kts | 20° |
| 2026-04-22 16:08 | -33.94916 | -68.88897 | 13623 ft | 293 kts | 20° |
| 2026-04-22 16:08 | -33.93004 | -68.88055 | 13428 ft | 292 kts | 20° |
| 2026-04-22 16:09 | -33.91121 | -68.87230 | 13237 ft | 292 kts | 20° |
| 2026-04-22 16:09 | -33.89163 | -68.86630 | 13020 ft | 291 kts | 6° |
| 2026-04-22 16:09 | -33.87145 | -68.86479 | 12840 ft | 290 kts | 4° |
| 2026-04-22 16:09 | -33.85137 | -68.86284 | 12655 ft | 289 kts | 5° |
| 2026-04-22 16:10 | -33.83135 | -68.86084 | 12463 ft | 288 kts | 5° |
| 2026-04-22 16:10 | -33.81109 | -68.85903 | 12272 ft | 288 kts | 5° |
| 2026-04-22 16:10 | -33.79788 | -68.85787 | 12145 ft | 287 kts | 5° |
| 2026-04-22 16:10 | -33.77152 | -68.85545 | 11895 ft | 287 kts | 5° |
| 2026-04-22 16:11 | -33.75164 | -68.85363 | 11698 ft | 286 kts | 5° |
| 2026-04-22 16:11 | -33.73181 | -68.85182 | 11511 ft | 286 kts | 5° |
| 2026-04-22 16:11 | -33.71202 | -68.85002 | 11321 ft | 285 kts | 5° |
| 2026-04-22 16:11 | -33.69230 | -68.84822 | 11135 ft | 284 kts | 5° |
| 2026-04-22 16:12 | -33.67261 | -68.84642 | 10943 ft | 283 kts | 5° |
| 2026-04-22 16:12 | -33.65297 | -68.84466 | 10755 ft | 283 kts | 5° |
| 2026-04-22 16:12 | -33.63338 | -68.84286 | 10566 ft | 282 kts | 5° |
| 2026-04-22 16:12 | -33.61384 | -68.84110 | 10380 ft | 281 kts | 5° |
| 2026-04-22 16:13 | -33.59434 | -68.83931 | 10192 ft | 281 kts | 5° |
| 2026-04-22 16:13 | -33.57489 | -68.83755 | 10006 ft | 280 kts | 5° |
| 2026-04-22 16:13 | -33.55538 | -68.83577 | 9728 ft | 282 kts | 5° |
| 2026-04-22 16:13 | -33.53587 | -68.83393 | 9495 ft | 281 kts | 5° |
| 2026-04-22 16:14 | -33.51642 | -68.83222 | 9289 ft | 280 kts | 4° |
| 2026-04-22 16:14 | -33.49705 | -68.83053 | 9095 ft | 278 kts | 5° |
| 2026-04-22 16:14 | -33.47777 | -68.82876 | 8905 ft | 277 kts | 5° |
| 2026-04-22 16:14 | -33.45958 | -68.82713 | 8721 ft | 238 kts | 4° |
| 2026-04-22 16:15 | -33.44423 | -68.82602 | 8554 ft | 208 kts | 4° |
| 2026-04-22 16:15 | -33.43031 | -68.82480 | 8424 ft | 194 kts | 5° |
| 2026-04-22 16:15 | -33.41714 | -68.82352 | 8307 ft | 187 kts | 5° |
| 2026-04-22 16:15 | -33.40433 | -68.82232 | 8189 ft | 183 kts | 4° |
| 2026-04-22 16:16 | -33.39174 | -68.82119 | 8077 ft | 181 kts | 4° |
| 2026-04-22 16:16 | -33.37923 | -68.82006 | 7960 ft | 180 kts | 4° |
| 2026-04-22 16:16 | -33.36676 | -68.81892 | 7840 ft | 179 kts | 4° |
| 2026-04-22 16:16 | -33.35435 | -68.81781 | 7724 ft | 175 kts | 4° |
| 2026-04-22 16:17 | -33.34312 | -68.81677 | 7604 ft | 149 kts | 4° |
| 2026-04-22 16:17 | -33.33336 | -68.81593 | 7494 ft | 135 kts | 4° |
| 2026-04-22 16:17 | -33.32422 | -68.81515 | 7406 ft | 130 kts | 4° |
| 2026-04-22 16:17 | -33.31523 | -68.81436 | 7327 ft | 129 kts | 4° |
| 2026-04-22 16:18 | -33.30635 | -68.81355 | 7249 ft | 127 kts | 4° |
| 2026-04-22 16:18 | -33.29766 | -68.81278 | 7173 ft | 127 kts | 4° |
| 2026-04-22 16:18 | -33.28875 | -68.81198 | 7093 ft | 127 kts | 4° |
| 2026-04-22 16:18 | -33.28006 | -68.81119 | 7015 ft | 127 kts | 4° |
| 2026-04-22 16:19 | -33.27127 | -68.81040 | 6933 ft | 127 kts | 4° |
| 2026-04-22 16:19 | -33.26245 | -68.80961 | 6846 ft | 128 kts | 4° |
| 2026-04-22 16:19 | -33.25362 | -68.80881 | 6766 ft | 127 kts | 4° |
| 2026-04-22 16:19 | -33.24473 | -68.80800 | 6680 ft | 129 kts | 4° |
| 2026-04-22 16:20 | -33.23582 | -68.80718 | 6592 ft | 128 kts | 4° |
| 2026-04-22 16:20 | -33.22697 | -68.80638 | 6512 ft | 128 kts | 4° |
| 2026-04-22 16:20 | -33.21803 | -68.80560 | 6425 ft | 129 kts | 5° |
| 2026-04-22 16:20 | -33.20909 | -68.80479 | 6336 ft | 128 kts | 4° |
| 2026-04-22 16:21 | -33.20024 | -68.80400 | 6256 ft | 127 kts | 4° |
| 2026-04-22 16:21 | -33.19136 | -68.80320 | 6164 ft | 128 kts | 4° |
| 2026-04-22 16:21 | -33.18250 | -68.80243 | 6078 ft | 129 kts | 4° |
| 2026-04-22 16:21 | -33.17645 | -68.80183 | 6028 ft | 130 kts | 5° |
| 2026-04-22 16:22 | -33.15835 | -68.80018 | 5860 ft | 131 kts | 4° |
| 2026-04-22 16:22 | -33.14619 | -68.79915 | 5731 ft | 132 kts | 4° |
| 2026-04-22 16:22 | -33.14001 | -68.79856 | 5672 ft | 132 kts | 5° |
| 2026-04-22 16:23 | -33.12158 | -68.79715 | 5497 ft | 132 kts | 359° |
| 2026-04-22 16:23 | -33.11252 | -68.79709 | 5404 ft | 128 kts | 1° |
| 2026-04-22 16:23 | -33.10362 | -68.79690 | 5321 ft | 128 kts | 1° |
| 2026-04-22 16:24 | -33.09469 | -68.79677 | 5241 ft | 129 kts | 0° |
| 2026-04-22 16:24 | -33.07684 | -68.79642 | 5066 ft | 126 kts | 0° |
| 2026-04-22 16:24 | -33.06820 | -68.79638 | 4975 ft | 121 kts | 0° |
| 2026-04-22 16:25 | -33.06007 | -68.79617 | 4890 ft | 113 kts | 1° |
| 2026-04-22 16:25 | -33.04565 | -68.79604 | 4821 ft | 100 kts | 359° |
| 2026-04-22 16:25 | -33.03838 | -68.79608 | 4835 ft | 109 kts | 1° |
| 2026-04-22 16:26 | -33.03037 | -68.79581 | 4852 ft | 120 kts | 1° |
| 2026-04-22 16:26 | -33.02173 | -68.79572 | 4848 ft | 129 kts | 360° |
| 2026-04-22 16:26 | -33.01270 | -68.79556 | 4843 ft | 131 kts | 1° |
| 2026-04-22 16:26 | -33.00359 | -68.79545 | 4842 ft | 132 kts | 0° |
| 2026-04-22 16:27 | -32.99428 | -68.79531 | 4839 ft | 134 kts | 1° |
| 2026-04-22 16:27 | -32.98497 | -68.79512 | 4834 ft | 135 kts | 0° |
| 2026-04-22 16:27 | -32.97561 | -68.79500 | 4834 ft | 132 kts | 1° |
| 2026-04-22 16:27 | -32.96656 | -68.79483 | 4690 ft | 129 kts | 0° |
| 2026-04-22 16:28 | -32.95774 | -68.79472 | 4535 ft | 119 kts | 1° |
| 2026-04-22 16:28 | -32.95024 | -68.79468 | 4389 ft | 106 kts | 360° |
| 2026-04-22 16:28 | -32.94287 | -68.79450 | 4245 ft | 105 kts | 0° |
| 2026-04-22 16:28 | -32.93563 | -68.79442 | 4107 ft | 103 kts | 1° |
| 2026-04-22 16:29 | -32.92841 | -68.79428 | 3966 ft | 104 kts | 360° |
| 2026-04-22 16:29 | -32.92127 | -68.79418 | 3832 ft | 102 kts | 0° |
| 2026-04-22 16:29 | -32.91413 | -68.79407 | 3695 ft | 103 kts | 0° |
| 2026-04-22 16:29 | -32.90699 | -68.79398 | 3558 ft | 103 kts | 359° |
| 2026-04-22 16:30 | -32.90225 | -68.79392 | 3468 ft | 102 kts | 1° |
| 2026-04-22 16:30 | -32.89276 | -68.79374 | 3286 ft | 102 kts | 1° |
| 2026-04-22 16:30 | -32.88570 | -68.79370 | 3151 ft | 101 kts | 0° |
| 2026-04-22 16:30 | -32.87865 | -68.79358 | 3019 ft | 101 kts | 0° |
| 2026-04-22 16:31 | -32.87161 | -68.79345 | 2882 ft | 101 kts | 0° |
| 2026-04-22 16:31 | -32.86466 | -68.79333 | 2750 ft | 100 kts | 0° |
| 2026-04-22 16:31 | -32.85777 | -68.79324 | 2618 ft | 99 kts | 359° |
| 2026-04-22 16:31 | -32.85088 | -68.79314 | 2487 ft | 99 kts | 1° |
| 2026-04-22 16:32 | -32.84399 | -68.79303 | 2358 ft | 99 kts | 1° |
| 2026-04-22 16:32 | -32.83740 | -68.79292 | 2312 ft | 86 kts | 1° |
| 2026-04-22 16:32 | -32.83231 | -68.79276 | 2306 ft | 55 kts | 0° |
| 2026-04-22 16:32 | -32.83070 | -68.79286 | 2303 ft | 13 kts | 352° |
| 2026-04-22 16:33 | -32.82987 | -68.79275 | 2303 ft | 11 kts | 41° |
| 2026-04-22 16:33 | -32.82917 | -68.79267 | 2304 ft | 10 kts | 342° |
| 2026-04-22 16:33 | -32.82845 | -68.79284 | 2306 ft | 11 kts | 1° |
| 2026-04-22 16:33 | -32.82763 | -68.79283 | 2303 ft | 13 kts | 0° |
| 2026-04-22 16:34 | -32.82668 | -68.79282 | 2304 ft | 14 kts | 1° |
| 2026-04-22 16:34 | -32.82567 | -68.79293 | 2301 ft | 14 kts | 328° |
| 2026-04-22 16:34 | -32.82547 | -68.79314 | 2301 ft | 0 kts | 299° |
| 2026-04-22 16:34 | -32.82547 | -68.79316 | 2301 ft | 2 kts | 297° |
| 2026-04-22 16:35 | -32.82546 | -68.79363 | 2300 ft | 8 kts | 264° |
| 2026-04-22 16:35 | -32.82583 | -68.79422 | 2300 ft | 10 kts | 224° |
| 2026-04-22 16:35 | -32.82634 | -68.79486 | 2306 ft | 12 kts | 228° |
| 2026-04-22 16:35 | -32.82671 | -68.79578 | 2300 ft | 13 kts | 257° |
| 2026-04-22 16:36 | -32.82676 | -68.79642 | 2305 ft | 7 kts | 275° |
| 2026-04-22 16:36 | -32.82684 | -68.79703 | 2302 ft | 9 kts | 226° |
| 2026-04-22 16:36 | -32.82744 | -68.79709 | 2300 ft | 10 kts | 179° |
| 2026-04-22 16:36 | -32.82793 | -68.79749 | 2301 ft | 10 kts | 256° |
| 2026-04-22 16:37 | -32.82794 | -68.79769 | 2301 ft | 0 kts | 272° |